createdAt,value
2022-10-23T00:03:48.254Z,17.06
2022-10-23T00:07:52.564Z,17.08
2022-10-23T00:11:54.879Z,17.13
2022-10-23T00:15:57.054Z,17.16
2022-10-23T00:20:01.470Z,17.19
2022-10-23T00:24:04.096Z,17.15
2022-10-23T00:28:06.237Z,17.24
2022-10-23T00:32:08.270Z,17.21
2022-10-23T00:36:15.045Z,17.30
2022-10-23T00:40:19.268Z,17.22
2022-10-23T00:44:21.393Z,17.24
2022-10-23T00:48:30.015Z,17.34
2022-10-23T00:52:41.703Z,17.45
2022-10-23T00:56:45.713Z,17.45
2022-10-23T01:00:51.541Z,17.48
2022-10-23T01:04:55.528Z,17.45
2022-10-23T01:09:09.303Z,17.42
2022-10-23T01:13:24.802Z,17.44
2022-10-23T01:17:49.411Z,17.37
2022-10-23T01:22:08.405Z,17.41
2022-10-23T01:26:22.943Z,17.50
2022-10-23T01:30:25.452Z,17.58
2022-10-23T01:34:41.666Z,17.58
2022-10-23T01:38:56.149Z,17.59
2022-10-23T01:43:05.486Z,17.63
2022-10-23T01:47:10.059Z,17.71
2022-10-23T01:51:27.504Z,17.71
2022-10-23T01:55:32.916Z,17.57
2022-10-23T01:59:42.726Z,17.53
2022-10-23T02:03:45.939Z,17.57
2022-10-23T02:07:48.748Z,17.48
2022-10-23T02:12:15.800Z,17.64
2022-10-23T02:17:07.065Z,17.67
2022-10-23T02:21:21.224Z,17.61
2022-10-23T02:25:33.805Z,17.69
2022-10-23T02:29:44.197Z,17.74
2022-10-23T02:33:48.097Z,17.82
2022-10-23T02:38:30.040Z,17.90
2022-10-23T02:42:39.123Z,17.92
2022-10-23T02:47:25.166Z,17.90
2022-10-23T02:51:43.209Z,17.93
2022-10-23T02:56:03.462Z,17.76
2022-10-23T03:00:15.665Z,17.72
2022-10-23T03:04:19.783Z,17.66
2022-10-23T03:08:22.845Z,17.72
2022-10-23T03:12:24.868Z,17.80
2022-10-23T03:16:27.367Z,17.90
2022-10-23T03:20:30.685Z,17.95
2022-10-23T03:24:32.690Z,17.96
2022-10-23T03:28:35.599Z,17.89
2022-10-23T03:32:37.702Z,17.92
2022-10-23T03:36:41.114Z,17.91
2022-10-23T03:40:44.611Z,17.92
2022-10-23T03:44:48.068Z,17.93
2022-10-23T03:48:50.084Z,17.93
2022-10-23T03:52:54.106Z,17.97
2022-10-23T03:56:57.634Z,17.95
2022-10-23T04:01:01.221Z,17.91
2022-10-23T04:05:03.602Z,17.86
2022-10-23T04:09:06.579Z,17.86
2022-10-23T04:13:08.907Z,17.86
2022-10-23T04:17:12.329Z,17.84
2022-10-23T04:21:14.675Z,17.89
2022-10-23T04:25:16.836Z,17.92
2022-10-23T04:29:22.621Z,17.90
2022-10-23T04:33:25.105Z,17.89
2022-10-23T04:37:28.272Z,17.89
2022-10-23T04:41:30.245Z,17.86
2022-10-23T04:45:32.173Z,17.85
2022-10-23T04:49:34.213Z,17.83
2022-10-23T04:53:47.752Z,17.91
2022-10-23T04:58:19.131Z,17.92
2022-10-23T05:02:21.316Z,17.95
2022-10-23T05:06:25.042Z,17.95
2022-10-23T05:10:50.955Z,17.93
2022-10-23T05:19:51.301Z,17.87
2022-10-23T05:23:54.526Z,17.92
2022-10-23T05:27:57.366Z,17.90
2022-10-23T05:32:03.546Z,17.91
2022-10-23T05:36:08.059Z,17.91
2022-10-23T05:40:10.671Z,17.86
2022-10-23T05:44:15.604Z,17.86
2022-10-23T05:48:35.735Z,17.86
2022-10-23T05:52:46.632Z,17.91
2022-10-23T05:57:07.169Z,17.82
2022-10-23T06:01:23.219Z,17.76
2022-10-23T06:05:35.689Z,17.86
2022-10-23T06:10:13.678Z,17.88
2022-10-23T06:14:19.736Z,17.93
2022-10-23T06:18:24.298Z,17.92
2022-10-23T06:22:34.509Z,17.99
2022-10-23T06:26:50.271Z,18.14
2022-10-23T06:30:56.760Z,18.14
2022-10-23T06:34:58.947Z,18.10
2022-10-23T06:39:01.398Z,18.22
2022-10-23T06:43:23.310Z,18.36
2022-10-23T06:47:52.061Z,18.41
2022-10-23T06:52:46.502Z,18.61
2022-10-23T06:56:53.776Z,18.80
2022-10-23T07:01:11.373Z,19.00
2022-10-23T07:05:14.604Z,19.18
2022-10-23T07:09:18.191Z,19.39
2022-10-23T07:13:29.264Z,19.65
2022-10-23T07:17:35.464Z,19.82
2022-10-23T07:21:38.387Z,19.99
2022-10-23T07:25:55.935Z,20.11
2022-10-23T07:29:58.687Z,20.12
2022-10-23T07:34:07.327Z,20.14
2022-10-23T07:38:09.857Z,20.16
2022-10-23T07:42:16.598Z,20.45
2022-10-23T07:46:19.809Z,20.50
2022-10-23T07:50:23.058Z,20.48
2022-10-23T07:54:25.146Z,20.44
2022-10-23T07:58:36.501Z,20.34
2022-10-23T08:02:47.148Z,20.26
2022-10-23T08:06:49.218Z,20.28
2022-10-23T08:10:53.786Z,20.25
2022-10-23T08:15:02.063Z,20.34
2022-10-23T08:19:13.087Z,20.38
2022-10-23T08:23:18.571Z,20.64
2022-10-23T08:27:20.670Z,20.71
2022-10-23T08:31:24.669Z,20.84
2022-10-23T08:35:52.617Z,20.96
2022-10-23T08:40:03.999Z,21.00
2022-10-23T08:44:50.192Z,21.25
2022-10-23T08:49:07.131Z,21.51
2022-10-23T08:53:22.420Z,21.67
2022-10-23T08:57:33.521Z,21.90
2022-10-23T09:01:52.778Z,22.14
2022-10-23T09:06:06.040Z,22.27
2022-10-23T09:10:49.260Z,22.38
2022-10-23T09:15:08.550Z,22.41
2022-10-23T09:19:26.360Z,22.55
2022-10-23T09:23:28.794Z,22.60
2022-10-23T09:27:30.803Z,22.67
2022-10-23T09:31:32.708Z,22.74
2022-10-23T09:35:34.827Z,23.01
2022-10-23T09:39:36.967Z,23.38
2022-10-23T09:43:39.235Z,23.86
2022-10-23T09:47:42.965Z,24.19
2022-10-23T09:52:09.885Z,24.15
2022-10-23T09:56:27.134Z,24.22
2022-10-23T10:00:29.263Z,24.24
2022-10-23T10:04:37.390Z,24.31
2022-10-23T10:08:52.200Z,24.36
2022-10-23T10:13:01.657Z,24.36
2022-10-23T10:17:11.533Z,24.17
2022-10-23T10:21:41.488Z,23.97
2022-10-23T10:25:59.771Z,23.74
2022-10-23T10:30:14.774Z,23.80
2022-10-23T10:34:39.114Z,24.24
2022-10-23T10:38:50.390Z,24.20
2022-10-23T10:43:23.473Z,24.22
2022-10-23T10:47:25.692Z,24.22
2022-10-23T10:51:51.008Z,24.21
2022-10-23T10:55:55.784Z,24.42
2022-10-23T11:00:05.045Z,24.75
2022-10-23T11:04:22.239Z,24.81
2022-10-23T11:08:29.518Z,25.15
2022-10-23T11:12:32.756Z,25.58
2022-10-23T11:16:39.758Z,25.56
2022-10-23T11:20:44.618Z,25.60
2022-10-23T11:25:01.817Z,25.83
2022-10-23T11:29:21.682Z,25.75
2022-10-23T11:33:48.729Z,26.00
2022-10-23T11:38:12.680Z,26.13
2022-10-23T11:42:32.969Z,26.22
2022-10-23T11:46:37.316Z,25.93
2022-10-23T11:50:45.369Z,25.42
2022-10-23T11:54:47.400Z,25.43
2022-10-23T11:59:30.453Z,25.24
2022-10-23T12:03:49.026Z,25.18
2022-10-23T12:07:56.855Z,25.17
2022-10-23T12:12:15.872Z,25.12
2022-10-23T12:16:17.807Z,25.17
2022-10-23T12:20:35.405Z,24.97
2022-10-23T12:24:49.386Z,24.76
2022-10-23T12:28:59.111Z,24.85
2022-10-23T12:33:26.929Z,24.77
2022-10-23T12:38:04.724Z,24.97
2022-10-23T12:42:23.575Z,25.03
2022-10-23T12:46:30.635Z,25.13
2022-10-23T12:50:34.477Z,25.19
2022-10-23T12:54:39.671Z,25.43
2022-10-23T12:58:52.505Z,25.37
2022-10-23T13:03:02.323Z,25.50
2022-10-23T13:07:04.648Z,25.49
2022-10-23T13:11:14.467Z,25.54
2022-10-23T13:15:20.221Z,25.57
2022-10-23T13:19:24.071Z,25.23
2022-10-23T13:23:25.980Z,25.23
2022-10-23T13:27:33.357Z,25.12
2022-10-23T13:31:35.725Z,25.12
2022-10-23T13:35:37.868Z,25.17
2022-10-23T13:39:39.787Z,25.22
2022-10-23T13:43:42.922Z,25.28
2022-10-23T13:47:45.435Z,25.26
2022-10-23T13:51:56.471Z,25.30
2022-10-23T13:55:58.877Z,25.32
2022-10-23T14:00:00.932Z,25.49
2022-10-23T14:04:04.510Z,25.48
2022-10-23T14:08:06.591Z,25.17
2022-10-23T14:12:08.818Z,25.23
2022-10-23T14:16:13.747Z,25.28
2022-10-23T14:20:18.985Z,25.29
2022-10-23T14:24:23.457Z,25.08
2022-10-23T14:28:25.348Z,25.08
2022-10-23T14:32:27.458Z,25.16
2022-10-23T14:36:38.610Z,24.92
2022-10-23T14:40:51.952Z,24.80
2022-10-23T14:44:54.120Z,24.71
2022-10-23T14:48:58.736Z,24.60
2022-10-23T14:53:04.367Z,24.33
2022-10-23T14:57:06.371Z,24.13
2022-10-23T15:01:08.580Z,24.09
2022-10-23T15:05:10.740Z,24.05
2022-10-23T15:09:14.055Z,24.20
2022-10-23T15:13:16.024Z,24.09
2022-10-23T15:17:18.012Z,24.06
2022-10-23T15:21:20.100Z,23.99
2022-10-23T15:25:22.060Z,23.82
2022-10-23T15:29:24.018Z,23.75
2022-10-23T15:33:26.538Z,23.53
2022-10-23T15:37:28.646Z,23.32
2022-10-23T15:41:32.894Z,23.18
2022-10-23T15:45:34.880Z,23.08
2022-10-23T15:49:37.125Z,22.99
2022-10-23T15:53:39.488Z,22.88
2022-10-23T15:57:41.549Z,22.58
2022-10-23T16:01:43.621Z,22.31
2022-10-23T16:05:45.825Z,22.11
2022-10-23T16:09:47.854Z,21.93
2022-10-23T16:13:50.131Z,21.92
2022-10-23T16:17:52.509Z,21.64
2022-10-23T16:21:54.603Z,21.53
2022-10-23T16:25:56.736Z,21.45
2022-10-23T16:29:59.100Z,21.42
2022-10-23T16:34:03.561Z,21.43
2022-10-23T16:38:06.051Z,21.40
2022-10-23T16:42:08.153Z,21.31
2022-10-23T16:46:23.604Z,21.33
2022-10-23T16:50:25.543Z,21.33
2022-10-23T16:54:27.631Z,21.25
2022-10-23T16:58:29.676Z,21.16
2022-10-23T17:02:32.054Z,20.99
2022-10-23T17:06:34.686Z,20.92
2022-10-23T17:10:36.782Z,20.83
2022-10-23T17:14:39.495Z,20.66
2022-10-23T17:18:44.130Z,20.55
2022-10-23T17:22:46.277Z,20.48
2022-10-23T17:26:48.542Z,20.58
2022-10-23T17:30:50.845Z,20.62
2022-10-23T17:34:52.931Z,20.59
2022-10-23T17:38:55.632Z,20.64
2022-10-23T17:42:57.646Z,20.59
2022-10-23T17:46:59.775Z,20.57
2022-10-23T17:51:14.040Z,20.58
2022-10-23T17:55:16.138Z,20.50
2022-10-23T17:59:21.493Z,20.54
2022-10-23T18:03:23.487Z,20.51
2022-10-23T18:07:26.629Z,20.59
2022-10-23T18:11:32.280Z,20.62
2022-10-23T18:15:35.800Z,20.59
2022-10-23T18:19:37.859Z,20.58
2022-10-23T18:23:40.264Z,20.59
2022-10-23T18:27:42.940Z,20.50
2022-10-23T18:31:45.895Z,20.51
2022-10-23T18:35:48.883Z,20.55
2022-10-23T18:39:50.957Z,20.42
2022-10-23T18:43:54.427Z,20.36
2022-10-23T18:47:56.753Z,20.28
2022-10-23T18:51:58.728Z,20.23
2022-10-23T18:56:00.882Z,20.16
2022-10-23T19:00:05.913Z,20.08
2022-10-23T19:04:08.511Z,19.97
2022-10-23T19:08:11.257Z,19.82
2022-10-23T19:16:38.847Z,19.49
2022-10-23T19:20:43.554Z,19.39
2022-10-23T19:24:48.941Z,19.20
2022-10-23T19:32:59.928Z,19.31
2022-10-23T19:37:02.160Z,19.36
2022-10-23T19:41:04.891Z,19.39
2022-10-23T19:45:11.934Z,19.36
2022-10-23T19:49:17.941Z,19.22
2022-10-23T19:53:20.354Z,19.29
2022-10-23T19:57:22.869Z,19.24
2022-10-23T20:01:26.134Z,19.23
2022-10-23T20:05:28.393Z,19.25
2022-10-23T20:09:30.959Z,19.29
2022-10-23T20:13:33.257Z,19.21
2022-10-23T20:17:35.987Z,19.25
2022-10-23T20:21:43.728Z,19.11
2022-10-23T20:25:45.780Z,18.98
2022-10-23T20:29:49.266Z,18.93
2022-10-23T20:33:52.262Z,18.61
2022-10-23T20:37:54.257Z,18.53
2022-10-23T20:41:56.978Z,18.53
2022-10-23T20:46:04.467Z,18.43
2022-10-23T20:50:07.191Z,18.38
2022-10-23T20:54:09.153Z,18.31
2022-10-23T20:58:11.146Z,18.18
2022-10-23T21:02:13.234Z,17.92
2022-10-23T21:06:16.159Z,17.67
2022-10-23T21:10:18.236Z,17.52
2022-10-23T21:14:20.503Z,17.52
2022-10-23T21:18:27.305Z,17.40
2022-10-23T21:22:35.821Z,17.35
2022-10-23T21:26:37.796Z,17.33
2022-10-23T21:30:41.241Z,17.19
2022-10-23T21:34:43.329Z,17.13
2022-10-23T21:38:47.831Z,16.95
2022-10-23T21:42:49.877Z,16.89
2022-10-23T21:46:51.839Z,16.84
2022-10-23T21:51:00.454Z,16.84
2022-10-23T21:55:02.537Z,16.83
2022-10-23T22:03:13.402Z,16.62
2022-10-23T22:07:15.694Z,16.64
2022-10-23T22:11:18.286Z,16.68
2022-10-23T22:15:20.450Z,16.39
2022-10-23T22:19:23.776Z,16.33
2022-10-23T22:23:25.983Z,16.27
2022-10-23T22:27:28.256Z,16.32
2022-10-23T22:31:31.960Z,16.34
2022-10-23T22:35:33.935Z,16.19
2022-10-23T22:39:35.961Z,16.21
2022-10-23T22:43:37.985Z,16.14
2022-10-23T22:47:40.059Z,16.09
2022-10-23T22:51:42.006Z,16.03
2022-10-23T22:55:43.917Z,16.05
2022-10-23T22:59:45.900Z,16.01
2022-10-23T23:03:49.106Z,15.97
2022-10-23T23:07:51.158Z,15.87
2022-10-23T23:11:53.156Z,15.84
2022-10-23T23:15:56.178Z,15.74
2022-10-23T23:19:58.690Z,15.69
2022-10-23T23:24:00.642Z,15.73
2022-10-23T23:28:02.766Z,15.72
2022-10-23T23:32:06.238Z,15.75
2022-10-23T23:36:10.982Z,15.79
2022-10-23T23:40:13.981Z,15.81
2022-10-23T23:44:16.026Z,15.88
2022-10-23T23:48:17.958Z,15.90
2022-10-23T23:52:20.033Z,15.99
2022-10-23T23:56:22.547Z,16.08
